createdAt,value
2019-06-01T00:04:05.244Z,19.30
2019-06-01T00:06:33.613Z,19.30
2019-06-01T00:09:01.533Z,19.30
2019-06-01T00:11:29.774Z,19.20
2019-06-01T00:14:01.260Z,19.20
2019-06-01T00:16:29.725Z,19.20
2019-06-01T00:19:00.991Z,19.20
2019-06-01T00:21:29.911Z,19.20
2019-06-01T00:23:57.802Z,19.10
2019-06-01T00:26:26.105Z,19.00
2019-06-01T00:28:54.059Z,19.00
2019-06-01T00:31:24.036Z,19.00
2019-06-01T00:33:53.271Z,18.90
2019-06-01T00:36:22.065Z,18.90
2019-06-01T00:38:51.914Z,18.80
2019-06-01T00:41:21.060Z,18.70
2019-06-01T00:43:50.617Z,18.70
2019-06-01T00:46:19.476Z,18.70
2019-06-01T00:48:49.869Z,18.60
2019-06-01T00:51:18.913Z,18.60
2019-06-01T00:53:47.339Z,18.50
2019-06-01T00:56:16.314Z,18.50
2019-06-01T00:58:44.039Z,18.50
2019-06-01T01:01:16.243Z,18.50
2019-06-01T01:03:45.966Z,18.50
2019-06-01T01:06:15.823Z,18.40
2019-06-01T01:08:44.801Z,18.40
2019-06-01T01:11:12.991Z,18.40
2019-06-01T01:13:43.059Z,18.30
2019-06-01T01:16:14.460Z,18.40
2019-06-01T01:18:42.948Z,18.60
2019-06-01T01:21:13.363Z,18.50
2019-06-01T01:23:43.070Z,18.00
2019-06-01T01:26:13.348Z,18.40
2019-06-01T01:28:41.680Z,18.40
2019-06-01T01:31:13.934Z,18.10
2019-06-01T01:33:39.558Z,18.50
2019-06-01T01:36:07.649Z,18.20
2019-06-01T01:38:35.312Z,18.20
2019-06-01T01:41:04.140Z,18.20
2019-06-01T01:43:34.963Z,18.20
2019-06-01T01:46:03.116Z,18.20
2019-06-01T01:48:33.682Z,18.00
2019-06-01T01:51:02.749Z,18.00
2019-06-01T01:53:30.214Z,18.00
2019-06-01T01:55:59.048Z,18.00
2019-06-01T01:58:30.008Z,18.00
2019-06-01T02:01:16.962Z,18.00
2019-06-01T02:03:35.287Z,18.00
2019-06-01T02:06:03.930Z,18.00
2019-06-01T02:08:32.030Z,18.40
2019-06-01T02:11:01.825Z,17.50
2019-06-01T02:13:29.541Z,17.90
2019-06-01T02:15:58.273Z,17.90
2019-06-01T02:18:28.825Z,17.90
2019-06-01T02:20:58.458Z,17.80
2019-06-01T02:23:26.532Z,17.90
2019-06-01T02:25:54.860Z,17.80
2019-06-01T02:28:22.988Z,17.70
2019-06-01T02:30:51.072Z,17.70
2019-06-01T02:33:19.423Z,17.70
2019-06-01T02:35:47.140Z,17.60
2019-06-01T02:38:16.928Z,17.50
2019-06-01T02:40:46.188Z,17.50
2019-06-01T02:43:17.009Z,17.20
2019-06-01T02:45:46.685Z,17.20
2019-06-01T02:48:14.817Z,17.50
2019-06-01T02:50:45.052Z,17.50
2019-06-01T02:55:42.071Z,17.30
2019-06-01T03:01:22.128Z,17.30
2019-06-01T03:03:52.323Z,17.80
2019-06-01T03:06:21.108Z,16.70
2019-06-01T03:08:51.367Z,17.70
2019-06-01T03:11:23.160Z,17.50
2019-06-01T03:13:53.888Z,17.50
2019-06-01T03:16:29.883Z,17.40
2019-06-01T03:19:01.912Z,17.40
2019-06-01T03:21:33.589Z,17.40
2019-06-01T03:24:08.607Z,17.40
2019-06-01T03:26:46.606Z,17.30
2019-06-01T03:29:18.921Z,17.40
2019-06-01T03:31:47.910Z,17.40
2019-06-01T03:34:16.210Z,17.30
2019-06-01T03:36:47.142Z,17.60
2019-06-01T03:39:15.172Z,17.40
2019-06-01T03:41:45.571Z,17.20
2019-06-01T03:44:18.349Z,17.20
2019-06-01T03:46:46.559Z,17.10
2019-06-01T03:49:15.155Z,17.20
2019-06-01T03:51:43.536Z,17.10
2019-06-01T03:54:13.225Z,17.10
2019-06-01T03:56:44.098Z,17.10
2019-06-01T03:59:12.493Z,17.10
2019-06-01T04:01:40.937Z,17.10
2019-06-01T04:04:11.359Z,17.10
2019-06-01T04:06:40.754Z,17.10
2019-06-01T04:09:09.884Z,17.10
2019-06-01T04:11:37.763Z,17.40
2019-06-01T04:14:07.718Z,17.20
2019-06-01T04:16:37.355Z,17.20
2019-06-01T04:19:06.162Z,17.30
2019-06-01T04:21:35.235Z,17.40
2019-06-01T04:24:04.010Z,17.40
2019-06-01T04:26:32.313Z,17.40
2019-06-01T04:31:29.978Z,17.90
2019-06-01T04:36:27.077Z,17.90
2019-06-01T04:38:57.469Z,17.80
2019-06-01T04:41:26.482Z,18.20
2019-06-01T04:43:54.930Z,18.50
2019-06-01T04:46:27.597Z,17.90
2019-06-01T04:48:55.613Z,18.40
2019-06-01T04:53:53.175Z,18.30
2019-06-01T04:56:20.956Z,18.90
2019-06-01T04:58:49.131Z,19.00
2019-06-01T05:03:46.235Z,18.30
2019-06-01T05:06:19.571Z,18.40
2019-06-01T05:08:47.667Z,19.10
2019-06-01T05:11:17.980Z,19.20
2019-06-01T05:13:47.344Z,19.40
2019-06-01T05:16:16.590Z,19.40
2019-06-01T05:18:45.498Z,19.60
2019-06-01T05:23:52.742Z,19.90
2019-06-01T05:26:21.267Z,20.10
2019-06-01T05:28:49.739Z,20.10
2019-06-01T05:31:24.260Z,20.30
2019-06-01T05:33:48.885Z,20.40
2019-06-01T05:36:18.408Z,20.60
2019-06-01T05:38:47.319Z,20.70
2019-06-01T05:41:16.618Z,20.50
2019-06-01T05:46:14.368Z,21.20
2019-06-01T05:48:42.039Z,21.30
2019-06-01T05:51:13.706Z,21.50
2019-06-01T05:53:41.896Z,21.60
2019-06-01T05:56:12.724Z,21.60
2019-06-01T05:58:44.929Z,21.80
2019-06-01T06:01:14.675Z,21.80
2019-06-01T06:03:43.951Z,21.90
2019-06-01T06:06:15.827Z,21.80
2019-06-01T06:08:47.256Z,21.60
2019-06-01T06:11:16.968Z,21.50
2019-06-01T06:13:51.054Z,21.50
2019-06-01T06:16:22.497Z,21.50
2019-06-01T06:18:53.435Z,21.70
2019-06-01T06:21:22.385Z,21.90
2019-06-01T06:28:51.303Z,22.50
2019-06-01T06:31:19.716Z,22.30
2019-06-01T06:33:56.655Z,22.40
2019-06-01T06:36:21.789Z,22.70
2019-06-01T06:38:52.316Z,23.10
2019-06-01T06:41:22.282Z,24.50
2019-06-01T06:43:51.284Z,23.20
2019-06-01T06:46:20.732Z,23.40
2019-06-01T06:48:49.358Z,23.60
2019-06-01T06:51:26.824Z,23.80
2019-06-01T06:53:59.009Z,23.80
2019-06-01T06:56:34.168Z,24.00
2019-06-01T06:59:12.488Z,24.30
2019-06-01T07:01:45.721Z,24.90
2019-06-01T07:04:19.293Z,24.90
2019-06-01T07:06:58.251Z,25.10
2019-06-01T07:09:28.196Z,25.10
2019-06-01T07:11:57.804Z,25.50
2019-06-01T07:14:28.344Z,25.90
2019-06-01T07:17:02.671Z,26.30
2019-06-01T07:19:33.377Z,26.60
2019-06-01T07:22:08.718Z,27.20
2019-06-01T07:24:43.313Z,27.30
2019-06-01T07:27:20.350Z,27.60
2019-06-01T07:30:15.594Z,28.00
2019-06-01T07:33:07.492Z,28.50
2019-06-01T07:35:38.691Z,28.50
2019-06-01T07:38:14.342Z,29.10
2019-06-01T07:40:46.032Z,29.70
2019-06-01T07:43:15.237Z,29.80
2019-06-01T07:45:49.852Z,29.60
2019-06-01T07:48:25.445Z,29.20
2019-06-01T07:50:58.263Z,29.20
2019-06-01T07:53:59.981Z,29.70
2019-06-01T07:56:30.647Z,29.90
2019-06-01T07:59:05.825Z,30.00
2019-06-01T08:01:44.536Z,30.30
2019-06-01T08:04:13.092Z,30.80
2019-06-01T08:09:18.364Z,32.00
2019-06-01T08:11:49.018Z,32.20
2019-06-01T08:14:17.696Z,32.70
2019-06-01T08:16:48.370Z,33.10
2019-06-01T08:19:25.945Z,33.10
2019-06-01T08:21:57.274Z,33.20
2019-06-01T08:24:28.318Z,33.80
2019-06-01T08:26:58.455Z,33.80
2019-06-01T08:29:26.724Z,34.40
2019-06-01T08:31:55.906Z,35.10
2019-06-01T08:34:27.409Z,35.10
2019-06-01T08:36:55.578Z,34.90
2019-06-01T08:39:25.223Z,35.20
2019-06-01T08:41:53.939Z,35.90
2019-06-01T08:44:27.693Z,36.50
2019-06-01T08:46:56.622Z,36.40
2019-06-01T08:49:25.909Z,36.60
2019-06-01T08:51:54.969Z,36.40
2019-06-01T08:54:24.332Z,36.40
2019-06-01T08:56:52.679Z,35.80
2019-06-01T08:59:21.063Z,35.80
2019-06-01T09:01:50.552Z,36.10
2019-06-01T09:04:20.751Z,36.00
2019-06-01T09:06:48.050Z,36.00
2019-06-01T09:09:16.240Z,35.50
2019-06-01T09:11:46.856Z,33.80
2019-06-01T09:14:16.367Z,33.70
2019-06-01T09:19:12.094Z,32.00
2019-06-01T09:21:40.292Z,31.30
2019-06-01T09:24:08.739Z,31.00
2019-06-01T09:26:37.832Z,30.50
2019-06-01T09:29:05.537Z,31.00
2019-06-01T09:31:34.372Z,30.70
2019-06-01T09:34:03.295Z,30.40
2019-06-01T09:36:32.534Z,30.30
2019-06-01T09:39:01.748Z,30.30
2019-06-01T09:41:30.489Z,30.10
2019-06-01T09:44:00.170Z,30.20
2019-06-01T09:46:31.954Z,30.10
2019-06-01T09:49:01.639Z,30.70
2019-06-01T09:51:31.287Z,30.30
2019-06-01T09:54:00.781Z,31.00
2019-06-01T09:56:29.706Z,31.00
2019-06-01T09:59:01.516Z,30.50
2019-06-01T10:01:34.334Z,30.90
2019-06-01T10:04:05.493Z,30.30
2019-06-01T10:06:34.739Z,30.80
2019-06-01T10:09:03.046Z,30.60
2019-06-01T10:14:04.349Z,30.70
2019-06-01T10:16:32.816Z,30.20
2019-06-01T10:19:01.552Z,30.40
2019-06-01T10:21:33.937Z,30.50
2019-06-01T10:26:31.405Z,30.60
2019-06-01T10:31:27.525Z,30.90
2019-06-01T10:33:55.554Z,30.50
2019-06-01T10:36:24.142Z,30.70
2019-06-01T10:38:52.583Z,30.80
2019-06-01T10:41:20.621Z,30.60
2019-06-01T10:43:49.357Z,30.90
2019-06-01T10:46:18.477Z,31.40
2019-06-01T10:48:46.829Z,31.60
2019-06-01T10:51:15.120Z,31.40
2019-06-01T10:53:43.915Z,31.80
2019-06-01T10:56:11.964Z,31.40
2019-06-01T10:58:57.626Z,31.60
2019-06-01T11:01:10.477Z,31.70
2019-06-01T11:03:41.318Z,31.90
2019-06-01T11:06:09.280Z,31.90
2019-06-01T11:08:39.051Z,31.10
2019-06-01T11:11:07.368Z,31.80
2019-06-01T11:13:36.957Z,31.50
2019-06-01T11:16:06.102Z,31.90
2019-06-01T11:18:35.268Z,31.10
2019-06-01T11:21:03.720Z,31.00
2019-06-01T11:23:33.275Z,31.00
2019-06-01T11:26:02.538Z,31.00
2019-06-01T11:28:30.972Z,31.00
2019-06-01T11:33:28.590Z,30.60
2019-06-01T11:35:56.744Z,30.90
2019-06-01T11:38:26.637Z,30.80
2019-06-01T11:40:55.180Z,30.90
2019-06-01T11:43:24.290Z,31.10
2019-06-01T11:45:53.288Z,31.20
2019-06-01T11:48:21.257Z,30.70
2019-06-01T11:50:50.780Z,31.00
2019-06-01T11:53:41.703Z,31.20
2019-06-01T11:56:11.243Z,30.90
2019-06-01T11:58:41.313Z,31.30
2019-06-01T12:01:10.069Z,31.20
2019-06-01T12:03:39.673Z,31.30
2019-06-01T12:06:29.375Z,31.30
2019-06-01T12:09:07.320Z,30.90
2019-06-01T12:11:37.877Z,30.90
2019-06-01T12:14:09.063Z,30.90
2019-06-01T12:16:36.787Z,30.80
2019-06-01T12:19:07.327Z,31.10
2019-06-01T12:21:37.060Z,31.20
2019-06-01T12:24:05.669Z,31.10
2019-06-01T12:26:35.063Z,31.40
2019-06-01T12:29:04.703Z,31.30
2019-06-01T12:31:32.431Z,30.90
2019-06-01T12:34:00.284Z,31.70
2019-06-01T12:36:28.026Z,31.40
2019-06-01T12:38:56.463Z,31.00
2019-06-01T12:41:25.815Z,31.10
2019-06-01T12:44:16.531Z,30.70
2019-06-01T12:46:46.976Z,30.20
2019-06-01T12:49:17.370Z,30.60
2019-06-01T12:51:46.923Z,30.30
2019-06-01T12:59:16.858Z,30.60
2019-06-01T13:01:45.269Z,30.40
2019-06-01T13:04:13.792Z,31.20
2019-06-01T13:09:13.540Z,30.60
2019-06-01T13:11:41.652Z,30.80
2019-06-01T13:14:11.354Z,31.40
2019-06-01T13:16:42.543Z,31.30
2019-06-01T13:24:06.841Z,30.80
2019-06-01T13:26:34.840Z,30.70
2019-06-01T13:29:05.259Z,30.70
2019-06-01T13:31:36.287Z,31.30
2019-06-01T13:36:32.823Z,31.00
2019-06-01T13:39:00.984Z,30.90
2019-06-01T13:41:29.517Z,30.70
2019-06-01T13:43:58.676Z,30.70
2019-06-01T13:48:55.416Z,30.50
2019-06-01T13:51:23.765Z,30.30
2019-06-01T13:53:52.986Z,30.00
2019-06-01T13:56:23.504Z,29.70
2019-06-01T13:58:53.080Z,30.00
2019-06-01T14:01:21.163Z,30.10
2019-06-01T14:03:49.648Z,29.90
2019-06-01T14:06:18.045Z,29.60
2019-06-01T14:08:46.854Z,29.40
2019-06-01T14:11:14.698Z,29.80
2019-06-01T14:13:42.393Z,29.40
2019-06-01T14:16:10.921Z,29.30
2019-06-01T14:21:06.968Z,29.70
2019-06-01T14:23:35.884Z,29.50
2019-06-01T14:26:05.668Z,29.20
2019-06-01T14:28:34.823Z,29.30
2019-06-01T14:31:04.317Z,29.00
2019-06-01T14:33:32.337Z,29.10
2019-06-01T14:36:01.242Z,29.50
2019-06-01T14:38:46.061Z,28.50
2019-06-01T14:43:32.341Z,28.90
2019-06-01T14:46:00.996Z,29.30
2019-06-01T14:48:29.225Z,28.80
2019-06-01T14:50:57.918Z,28.80
2019-06-01T14:53:26.673Z,29.10
2019-06-01T14:55:55.821Z,28.80
2019-06-01T14:58:24.750Z,29.20
2019-06-01T15:00:56.482Z,28.80
2019-06-01T15:05:56.420Z,28.60
2019-06-01T15:08:24.408Z,28.90
2019-06-01T15:10:53.625Z,29.00
2019-06-01T15:13:23.632Z,28.50
2019-06-01T15:15:53.363Z,29.00
2019-06-01T15:18:24.674Z,29.10
2019-06-01T15:20:55.943Z,28.60
2019-06-01T15:25:52.703Z,28.90
2019-06-01T15:28:21.078Z,28.60
2019-06-01T15:30:50.715Z,28.00
2019-06-01T15:35:47.933Z,28.30
2019-06-01T15:38:16.658Z,28.40
2019-06-01T15:40:47.918Z,28.10
2019-06-01T15:45:43.602Z,28.00
2019-06-01T15:48:11.586Z,27.90
2019-06-01T15:50:40.708Z,27.80
2019-06-01T15:58:07.941Z,27.80
2019-06-01T16:00:38.311Z,27.90
2019-06-01T16:05:36.701Z,27.40
2019-06-01T16:10:42.885Z,27.30
2019-06-01T16:13:12.483Z,27.20
2019-06-01T16:15:43.100Z,27.50
2019-06-01T16:18:11.543Z,27.10
2019-06-01T16:20:42.269Z,27.60
2019-06-01T16:23:11.817Z,27.20
2019-06-01T16:25:41.859Z,27.10
2019-06-01T16:28:12.135Z,27.00
2019-06-01T16:30:41.417Z,27.10
2019-06-01T16:35:39.372Z,26.80
2019-06-01T16:40:37.570Z,26.90
2019-06-01T16:45:33.600Z,26.90
2019-06-01T16:48:03.639Z,26.90
2019-06-01T16:50:31.533Z,26.70
2019-06-01T16:53:00.396Z,27.20
2019-06-01T16:55:31.528Z,26.80
2019-06-01T17:03:00.613Z,26.50
2019-06-01T17:05:31.413Z,26.70
2019-06-01T17:08:00.825Z,26.10
2019-06-01T17:10:31.106Z,26.70
2019-06-01T17:13:01.494Z,26.40
2019-06-01T17:15:29.541Z,26.30
2019-06-01T17:20:47.565Z,26.50
2019-06-01T17:25:45.863Z,26.40
2019-06-01T17:28:15.359Z,26.40
2019-06-01T17:30:46.267Z,26.40
2019-06-01T17:33:18.969Z,26.00
2019-06-01T17:35:46.652Z,26.30
2019-06-01T17:38:18.922Z,26.80
2019-06-01T17:40:51.621Z,26.20
2019-06-01T17:43:21.200Z,26.20
2019-06-01T17:48:26.479Z,26.00
2019-06-01T17:50:49.912Z,25.70
2019-06-01T17:53:20.569Z,26.60
2019-06-01T17:55:51.422Z,26.10
2019-06-01T17:58:20.600Z,26.60
2019-06-01T18:00:52.297Z,26.20
2019-06-01T18:03:25.191Z,26.00
2019-06-01T18:05:55.561Z,26.00
2019-06-01T18:08:25.744Z,26.00
2019-06-01T18:10:55.170Z,25.90
2019-06-01T18:13:26.550Z,25.90
2019-06-01T18:15:54.223Z,25.90
2019-06-01T18:18:23.933Z,25.90
2019-06-01T18:20:55.076Z,25.90
2019-06-01T18:23:23.732Z,25.90
2019-06-01T18:25:52.648Z,25.90
2019-06-01T18:28:21.179Z,25.80
2019-06-01T18:30:50.028Z,25.30
2019-06-01T18:33:18.185Z,25.50
2019-06-01T18:35:45.959Z,25.60
2019-06-01T18:38:15.905Z,26.00
2019-06-01T18:40:44.179Z,25.60
2019-06-01T18:43:17.240Z,24.90
2019-06-01T18:45:47.283Z,25.80
2019-06-01T18:48:17.166Z,25.70
2019-06-01T18:50:45.547Z,25.70
2019-06-01T18:53:14.450Z,25.50
2019-06-01T18:55:44.275Z,25.50
2019-06-01T19:00:41.825Z,25.50
2019-06-01T19:05:43.717Z,25.30
2019-06-01T19:08:13.632Z,25.40
2019-06-01T19:10:41.605Z,25.30
2019-06-01T19:13:11.614Z,25.20
2019-06-01T19:15:40.148Z,25.20
2019-06-01T19:18:08.663Z,25.20
2019-06-01T19:20:37.055Z,25.20
2019-06-01T19:23:06.489Z,25.20
2019-06-01T19:25:35.268Z,25.10
2019-06-01T19:28:06.833Z,25.10
2019-06-01T19:30:44.464Z,25.10
2019-06-01T19:33:15.311Z,24.90
2019-06-01T19:35:43.005Z,25.00
2019-06-01T19:38:11.415Z,24.90
2019-06-01T19:45:40.479Z,24.70
2019-06-01T19:48:10.040Z,24.30
2019-06-01T19:53:08.461Z,24.40
2019-06-01T19:55:37.104Z,25.00
2019-06-01T19:58:05.289Z,24.10
2019-06-01T20:00:34.181Z,24.10
2019-06-01T20:03:02.270Z,24.40
2019-06-01T20:05:30.859Z,24.90
2019-06-01T20:07:58.572Z,24.50
2019-06-01T20:10:26.327Z,24.60
2019-06-01T20:12:54.731Z,24.30
2019-06-01T20:15:23.448Z,24.50
2019-06-01T20:17:52.938Z,24.20
2019-06-01T20:20:23.464Z,24.20
2019-06-01T20:22:53.351Z,23.70
2019-06-01T20:25:23.802Z,23.80
2019-06-01T20:27:52.280Z,24.10
2019-06-01T20:30:22.247Z,24.00
2019-06-01T20:32:52.061Z,23.90
2019-06-01T20:35:31.054Z,23.80
2019-06-01T20:37:59.878Z,23.60
2019-06-01T20:40:27.721Z,24.50
2019-06-01T20:45:24.700Z,23.80
2019-06-01T20:47:52.753Z,23.50
2019-06-01T20:50:20.954Z,23.90
2019-06-01T20:52:49.017Z,23.90
2019-06-01T20:57:46.179Z,23.70
2019-06-01T21:00:15.951Z,23.70
2019-06-01T21:02:44.780Z,23.70
2019-06-01T21:05:13.816Z,23.70
2019-06-01T21:07:56.720Z,23.70
2019-06-01T21:10:22.589Z,23.70
2019-06-01T21:12:51.935Z,23.70
2019-06-01T21:15:21.334Z,23.70
2019-06-01T21:17:56.444Z,23.70
2019-06-01T21:20:29.816Z,23.70
2019-06-01T21:22:56.686Z,23.70
2019-06-01T21:25:25.566Z,23.60
2019-06-01T21:27:54.079Z,23.60
2019-06-01T21:30:25.798Z,23.60
2019-06-01T21:32:54.260Z,23.50
2019-06-01T21:35:23.916Z,23.50
2019-06-01T21:37:52.386Z,23.40
2019-06-01T21:40:21.535Z,23.40
2019-06-01T21:43:01.168Z,23.40
2019-06-01T21:45:21.613Z,23.30
2019-06-01T21:47:51.219Z,23.30
2019-06-01T21:50:19.951Z,23.20
2019-06-01T21:52:49.651Z,23.10
2019-06-01T21:55:18.100Z,23.10
2019-06-01T21:57:45.965Z,22.90
2019-06-01T22:00:18.617Z,22.90
2019-06-01T22:02:46.984Z,22.80
2019-06-01T22:05:14.587Z,22.80
2019-06-01T22:07:43.061Z,22.70
2019-06-01T22:10:11.973Z,22.70
2019-06-01T22:12:40.451Z,22.60
2019-06-01T22:15:10.688Z,22.60
2019-06-01T22:20:07.383Z,22.30
2019-06-01T22:22:35.084Z,22.50
2019-06-01T22:25:04.188Z,22.50
2019-06-01T22:27:34.039Z,22.50
2019-06-01T22:30:04.649Z,22.40
2019-06-01T22:32:33.124Z,22.10
2019-06-01T22:35:01.875Z,22.30
2019-06-01T22:37:30.024Z,22.60
2019-06-01T22:39:59.473Z,22.40
2019-06-01T22:42:26.787Z,22.30
2019-06-01T22:52:23.255Z,22.40
2019-06-01T22:54:52.265Z,22.10
2019-06-01T22:57:20.680Z,21.70
2019-06-01T22:59:49.489Z,22.20
2019-06-01T23:02:19.079Z,22.40
2019-06-01T23:04:47.455Z,22.10
2019-06-01T23:09:46.895Z,22.50
2019-06-01T23:12:15.868Z,22.30
2019-06-01T23:14:47.542Z,21.80
2019-06-01T23:19:45.943Z,21.80
2019-06-01T23:22:15.188Z,21.70
2019-06-01T23:24:44.988Z,21.80
2019-06-01T23:27:14.738Z,21.80
2019-06-01T23:29:44.079Z,21.70
2019-06-01T23:32:12.836Z,21.70
2019-06-01T23:34:40.859Z,21.70
2019-06-01T23:37:10.180Z,21.60
2019-06-01T23:39:39.895Z,21.60
2019-06-01T23:42:08.308Z,21.60
2019-06-01T23:47:06.009Z,21.60
2019-06-01T23:49:34.135Z,21.60
2019-06-01T23:52:02.158Z,21.50
2019-06-01T23:54:32.455Z,21.50
2019-06-01T23:57:05.775Z,21.60
2019-06-01T23:59:34.344Z,21.30
